createdAt,value
2018-06-30T00:02:38.638Z,99.90
2018-06-30T00:05:48.929Z,99.90
2018-06-30T00:08:59.247Z,99.90
2018-06-30T00:12:09.652Z,99.90
2018-06-30T00:15:20.365Z,99.90
2018-06-30T00:18:30.470Z,99.90
2018-06-30T00:21:41.232Z,99.90
2018-06-30T00:24:51.165Z,99.90
2018-06-30T00:28:01.785Z,99.90
2018-06-30T00:31:12.593Z,99.90
2018-06-30T00:34:23.314Z,99.90
2018-06-30T00:37:33.749Z,99.90
2018-06-30T00:40:43.953Z,99.90
2018-06-30T00:43:54.716Z,99.90
2018-06-30T00:47:05.640Z,99.90
2018-06-30T00:50:16.017Z,99.90
2018-06-30T00:53:26.811Z,99.90
2018-06-30T00:56:36.956Z,99.90
2018-06-30T00:59:58.207Z,99.90
2018-06-30T01:03:08.597Z,99.90
2018-06-30T01:06:19.156Z,99.90
2018-06-30T01:09:30.018Z,99.90
2018-06-30T01:12:40.013Z,99.90
2018-06-30T01:19:26.277Z,99.90
2018-06-30T01:22:37.121Z,99.90
2018-06-30T01:25:48.361Z,99.90
2018-06-30T01:28:59.158Z,99.90
2018-06-30T01:32:09.384Z,99.90
2018-06-30T01:35:19.681Z,99.90
2018-06-30T01:38:30.010Z,99.90
2018-06-30T01:41:40.586Z,99.90
2018-06-30T01:44:50.811Z,99.90
2018-06-30T01:48:01.021Z,99.90
2018-06-30T01:51:11.700Z,99.90
2018-06-30T01:54:22.417Z,99.90
2018-06-30T01:57:33.226Z,99.90
2018-06-30T02:00:43.638Z,99.90
2018-06-30T02:03:54.089Z,99.90
2018-06-30T02:07:04.162Z,99.90
2018-06-30T02:10:14.101Z,99.90
2018-06-30T02:13:24.209Z,99.90
2018-06-30T02:16:34.948Z,99.90
2018-06-30T02:19:45.417Z,99.90
2018-06-30T02:22:55.589Z,99.90
2018-06-30T02:26:05.606Z,99.90
2018-06-30T02:29:16.342Z,99.90
2018-06-30T02:32:26.516Z,99.90
2018-06-30T02:35:36.635Z,99.90
2018-06-30T02:38:47.851Z,99.90
2018-06-30T02:41:58.632Z,99.90
2018-06-30T02:45:09.362Z,99.90
2018-06-30T02:48:26.997Z,99.90
2018-06-30T02:51:37.100Z,99.90
2018-06-30T02:54:48.249Z,99.90
2018-06-30T02:57:58.608Z,99.90
2018-06-30T03:01:09.633Z,99.90
2018-06-30T03:04:19.981Z,99.90
2018-06-30T03:07:30.565Z,99.90
2018-06-30T03:10:41.405Z,99.90
2018-06-30T03:13:52.446Z,99.90
2018-06-30T03:17:03.116Z,99.90
2018-06-30T03:20:14.074Z,99.90
2018-06-30T03:23:24.053Z,99.90
2018-06-30T03:26:33.841Z,99.90
2018-06-30T03:29:43.891Z,99.90
2018-06-30T03:32:54.603Z,99.90
2018-06-30T03:36:04.901Z,99.90
2018-06-30T03:39:14.803Z,99.90
2018-06-30T03:45:35.638Z,99.90
2018-06-30T03:48:46.336Z,99.90
2018-06-30T03:51:56.464Z,99.90
2018-06-30T03:55:07.061Z,99.90
2018-06-30T03:58:17.533Z,99.90
2018-06-30T04:01:28.302Z,99.90
2018-06-30T04:04:38.430Z,99.90
2018-06-30T04:07:48.385Z,99.90
2018-06-30T04:10:59.158Z,99.90
2018-06-30T04:20:31.429Z,99.90
2018-06-30T04:23:41.505Z,99.90
2018-06-30T04:26:52.228Z,99.90
2018-06-30T04:30:02.967Z,99.90
2018-06-30T04:33:12.908Z,99.90
2018-06-30T04:36:23.613Z,99.90
2018-06-30T04:39:34.409Z,99.90
2018-06-30T04:42:44.321Z,99.90
2018-06-30T04:45:54.333Z,99.90
2018-06-30T04:49:05.106Z,99.90
2018-06-30T04:52:16.078Z,99.90
2018-06-30T04:55:26.910Z,99.90
2018-06-30T04:58:37.121Z,99.90
2018-06-30T05:01:47.698Z,99.90
2018-06-30T05:04:58.012Z,99.90
2018-06-30T05:08:08.896Z,99.90
2018-06-30T05:11:19.574Z,99.90
2018-06-30T05:14:30.198Z,99.90
2018-06-30T05:17:40.138Z,99.90
2018-06-30T05:20:51.200Z,99.90
2018-06-30T05:24:01.851Z,99.90
2018-06-30T05:27:12.319Z,99.90
2018-06-30T05:30:23.369Z,99.90
2018-06-30T05:33:34.050Z,99.90
2018-06-30T05:36:44.020Z,99.90
2018-06-30T05:39:54.753Z,99.90
2018-06-30T05:43:06.037Z,99.90
2018-06-30T05:46:16.567Z,99.90
2018-06-30T05:49:27.109Z,99.90
2018-06-30T05:52:37.874Z,99.90
2018-06-30T05:55:48.537Z,99.90
2018-06-30T05:58:58.352Z,99.90
2018-06-30T06:02:08.629Z,99.90
2018-06-30T06:05:19.399Z,99.90
2018-06-30T06:08:29.320Z,99.90
2018-06-30T06:11:40.157Z,99.90
2018-06-30T06:14:51.363Z,99.90
2018-06-30T06:18:01.501Z,99.90
2018-06-30T06:21:11.441Z,99.90
2018-06-30T06:24:22.059Z,99.90
2018-06-30T06:27:32.729Z,99.90
2018-06-30T06:30:43.416Z,99.90
2018-06-30T06:33:54.201Z,99.90
2018-06-30T06:37:05.033Z,99.90
2018-06-30T06:43:25.348Z,99.90
2018-06-30T06:49:47.297Z,99.90
2018-06-30T06:52:58.007Z,99.90
2018-06-30T06:56:08.901Z,99.90
2018-06-30T06:59:19.636Z,99.90
2018-06-30T07:02:30.941Z,99.90
2018-06-30T07:08:51.983Z,99.90
2018-06-30T07:12:03.054Z,95.50
2018-06-30T07:15:14.335Z,95.40
2018-06-30T07:18:24.278Z,94.00
2018-06-30T07:21:34.566Z,93.70
2018-06-30T07:24:45.482Z,93.20
2018-06-30T07:31:05.300Z,86.30
2018-06-30T07:34:15.422Z,90.60
2018-06-30T07:37:26.339Z,82.30
2018-06-30T07:40:37.094Z,85.00
2018-06-30T07:43:48.030Z,83.40
2018-06-30T07:46:58.810Z,80.10
2018-06-30T07:50:10.116Z,77.90
2018-06-30T07:53:20.320Z,78.80
2018-06-30T07:56:30.153Z,79.60
2018-06-30T07:59:40.300Z,76.80
2018-06-30T08:02:51.377Z,76.60
2018-06-30T08:06:01.778Z,79.80
2018-06-30T08:09:12.715Z,78.30
2018-06-30T08:12:23.414Z,75.20
2018-06-30T08:15:33.413Z,69.30
2018-06-30T08:18:43.415Z,70.90
2018-06-30T08:21:55.044Z,70.70
2018-06-30T08:25:05.880Z,71.60
2018-06-30T08:28:16.301Z,71.10
2018-06-30T08:31:27.361Z,72.10
2018-06-30T08:34:37.852Z,70.70
2018-06-30T08:37:47.935Z,72.40
2018-06-30T08:40:58.993Z,68.30
2018-06-30T08:44:09.927Z,69.70
2018-06-30T08:47:22.074Z,67.40
2018-06-30T08:50:31.949Z,68.20
2018-06-30T08:53:41.995Z,64.60
2018-06-30T08:56:52.839Z,65.00
2018-06-30T09:00:03.630Z,63.20
2018-06-30T09:03:14.862Z,64.90
2018-06-30T09:06:25.355Z,66.60
2018-06-30T09:09:35.425Z,66.00
2018-06-30T09:12:46.648Z,64.50
2018-06-30T09:15:58.610Z,69.10
2018-06-30T09:19:09.232Z,67.90
2018-06-30T09:22:19.932Z,66.20
2018-06-30T09:25:30.617Z,60.30
2018-06-30T09:28:41.547Z,61.20
2018-06-30T09:31:52.542Z,63.60
2018-06-30T09:35:03.037Z,60.10
2018-06-30T09:38:13.871Z,62.50
2018-06-30T09:41:24.752Z,63.20
2018-06-30T09:44:35.399Z,63.00
2018-06-30T09:47:46.310Z,58.90
2018-06-30T09:50:56.813Z,59.90
2018-06-30T09:54:07.943Z,60.10
2018-06-30T09:57:18.296Z,56.30
2018-06-30T10:00:34.584Z,57.70
2018-06-30T10:03:45.829Z,54.20
2018-06-30T10:06:58.012Z,54.40
2018-06-30T10:10:08.313Z,54.20
2018-06-30T10:13:19.480Z,54.60
2018-06-30T10:16:29.845Z,55.10
2018-06-30T10:19:40.894Z,52.70
2018-06-30T10:22:51.701Z,54.00
2018-06-30T10:26:02.661Z,52.20
2018-06-30T10:29:13.304Z,52.70
2018-06-30T10:32:23.872Z,50.40
2018-06-30T10:35:34.772Z,51.60
2018-06-30T10:38:45.455Z,51.70
2018-06-30T10:41:56.094Z,52.50
2018-06-30T10:45:06.677Z,49.20
2018-06-30T10:48:16.728Z,51.20
2018-06-30T10:51:27.029Z,52.00
2018-06-30T10:54:37.750Z,51.80
2018-06-30T10:57:48.239Z,53.20
2018-06-30T11:00:59.150Z,49.70
2018-06-30T11:04:10.375Z,50.70
2018-06-30T11:07:20.906Z,50.90
2018-06-30T11:10:32.029Z,51.70
2018-06-30T11:13:42.016Z,50.90
2018-06-30T11:16:52.780Z,49.90
2018-06-30T11:20:03.030Z,49.30
2018-06-30T11:23:13.506Z,50.10
2018-06-30T11:26:23.884Z,49.90
2018-06-30T11:29:34.400Z,50.20
2018-06-30T11:32:45.339Z,50.00
2018-06-30T11:35:55.888Z,51.10
2018-06-30T11:39:09.780Z,49.40
2018-06-30T11:42:21.106Z,50.20
2018-06-30T11:45:31.569Z,50.50
2018-06-30T11:48:41.988Z,49.80
2018-06-30T11:51:52.909Z,50.10
2018-06-30T11:55:02.949Z,49.50
2018-06-30T11:58:13.912Z,52.00
2018-06-30T12:01:24.056Z,50.60
2018-06-30T12:07:44.220Z,51.10
2018-06-30T12:10:55.145Z,49.90
2018-06-30T12:14:06.486Z,49.60
2018-06-30T12:17:17.292Z,48.70
2018-06-30T12:20:29.477Z,51.40
2018-06-30T12:23:39.966Z,50.30
2018-06-30T12:26:51.684Z,50.70
2018-06-30T12:30:03.439Z,49.70
2018-06-30T12:33:14.133Z,48.70
2018-06-30T12:36:25.085Z,49.70
2018-06-30T12:39:35.895Z,50.30
2018-06-30T12:42:46.369Z,49.10
2018-06-30T12:45:57.361Z,48.20
2018-06-30T12:49:07.994Z,48.00
2018-06-30T12:52:19.399Z,49.60
2018-06-30T12:55:29.759Z,49.80
2018-06-30T12:58:40.900Z,50.00
2018-06-30T13:05:02.025Z,48.80
2018-06-30T13:08:12.192Z,50.60
2018-06-30T13:11:25.235Z,49.50
2018-06-30T13:14:35.337Z,49.10
2018-06-30T13:17:46.375Z,49.00
2018-06-30T13:20:56.722Z,48.20
2018-06-30T13:24:07.464Z,50.40
2018-06-30T13:27:18.389Z,48.10
2018-06-30T13:30:28.943Z,48.50
2018-06-30T13:33:39.278Z,49.60
2018-06-30T13:36:49.617Z,48.90
2018-06-30T13:40:00.439Z,48.70
2018-06-30T13:43:11.327Z,48.80
2018-06-30T13:46:22.055Z,47.70
2018-06-30T13:49:32.821Z,47.10
2018-06-30T13:52:43.333Z,49.40
2018-06-30T13:55:54.601Z,46.00
2018-06-30T13:59:04.996Z,48.40
2018-06-30T14:02:15.084Z,47.00
2018-06-30T14:05:26.108Z,47.80
2018-06-30T14:08:36.831Z,46.50
2018-06-30T14:11:47.910Z,46.30
2018-06-30T14:14:59.724Z,46.40
2018-06-30T14:18:10.229Z,46.90
2018-06-30T14:21:20.936Z,46.00
2018-06-30T14:24:31.623Z,47.90
2018-06-30T14:27:41.816Z,46.80
2018-06-30T14:30:55.070Z,45.70
2018-06-30T14:34:05.804Z,46.30
2018-06-30T14:37:15.976Z,45.80
2018-06-30T14:40:27.048Z,46.50
2018-06-30T14:47:52.218Z,49.20
2018-06-30T14:51:02.362Z,45.70
2018-06-30T14:54:13.178Z,47.90
2018-06-30T14:57:23.904Z,47.90
2018-06-30T15:00:34.849Z,48.50
2018-06-30T15:03:45.533Z,47.30
2018-06-30T15:06:57.661Z,49.10
2018-06-30T15:10:09.230Z,47.90
2018-06-30T15:13:20.248Z,49.00
2018-06-30T15:16:32.167Z,46.80
2018-06-30T15:19:42.569Z,46.30
2018-06-30T15:22:56.980Z,48.80
2018-06-30T15:26:08.562Z,47.90
2018-06-30T15:29:27.564Z,48.30
2018-06-30T15:32:44.276Z,47.00
2018-06-30T15:35:55.132Z,48.50
2018-06-30T15:39:08.560Z,48.20
2018-06-30T15:42:20.461Z,47.70
2018-06-30T15:45:31.544Z,48.30
2018-06-30T15:48:49.938Z,47.90
2018-06-30T15:52:02.232Z,48.70
2018-06-30T15:55:12.811Z,49.50
2018-06-30T15:58:25.678Z,49.00
2018-06-30T16:01:36.916Z,49.00
2018-06-30T16:04:47.768Z,48.60
2018-06-30T16:07:58.706Z,48.80
2018-06-30T16:11:10.480Z,49.30
2018-06-30T16:14:21.706Z,48.60
2018-06-30T16:17:32.757Z,48.60
2018-06-30T16:20:44.666Z,49.30
2018-06-30T16:23:56.582Z,49.70
2018-06-30T16:27:07.717Z,50.10
2018-06-30T16:30:18.554Z,50.40
2018-06-30T16:33:29.644Z,50.90
2018-06-30T16:36:40.623Z,50.00
2018-06-30T16:39:51.124Z,49.20
2018-06-30T16:43:01.939Z,50.00
2018-06-30T16:46:12.577Z,49.30
2018-06-30T16:49:22.810Z,50.70
2018-06-30T16:52:33.396Z,49.60
2018-06-30T16:55:43.415Z,51.00
2018-06-30T16:58:54.790Z,50.10
2018-06-30T17:02:05.049Z,50.70
2018-06-30T17:05:16.463Z,50.00
2018-06-30T17:08:27.937Z,50.00
2018-06-30T17:11:38.069Z,49.30
2018-06-30T17:14:48.991Z,49.70
2018-06-30T17:18:00.791Z,50.30
2018-06-30T17:21:11.662Z,49.50
2018-06-30T17:24:22.589Z,48.60
2018-06-30T17:27:33.296Z,48.60
2018-06-30T17:30:43.423Z,49.50
2018-06-30T17:33:54.845Z,49.70
2018-06-30T17:37:05.170Z,50.10
2018-06-30T17:40:16.205Z,50.30
2018-06-30T17:43:26.408Z,49.50
2018-06-30T17:46:37.142Z,50.00
2018-06-30T17:49:48.400Z,50.70
2018-06-30T17:52:58.975Z,50.40
2018-06-30T17:56:09.238Z,50.30
2018-06-30T17:59:19.411Z,50.60
2018-06-30T18:02:30.143Z,50.90
2018-06-30T18:05:41.613Z,51.40
2018-06-30T18:08:52.178Z,51.70
2018-06-30T18:12:03.157Z,52.80
2018-06-30T18:15:13.800Z,51.40
2018-06-30T18:18:25.194Z,52.20
2018-06-30T18:21:35.275Z,53.00
2018-06-30T18:24:45.480Z,53.40
2018-06-30T18:27:56.134Z,52.60
2018-06-30T18:31:07.106Z,52.20
2018-06-30T18:34:17.885Z,52.70
2018-06-30T18:37:27.983Z,53.10
2018-06-30T18:40:38.879Z,53.10
2018-06-30T18:43:50.886Z,52.90
2018-06-30T18:47:02.134Z,52.50
2018-06-30T18:50:12.818Z,53.30
2018-06-30T18:53:23.021Z,53.80
2018-06-30T18:56:35.343Z,53.70
2018-06-30T18:59:45.758Z,53.30
2018-06-30T19:02:56.386Z,55.40
2018-06-30T19:06:06.889Z,55.40
2018-06-30T19:09:18.356Z,55.40
2018-06-30T19:12:29.238Z,56.40
2018-06-30T19:15:40.213Z,56.40
2018-06-30T19:18:50.948Z,56.20
2018-06-30T19:22:01.548Z,56.60
2018-06-30T19:25:12.192Z,56.80
2018-06-30T19:28:23.208Z,57.20
2018-06-30T19:31:34.081Z,58.00
2018-06-30T19:34:44.510Z,58.30
2018-06-30T19:37:54.483Z,58.90
2018-06-30T19:41:04.913Z,58.60
2018-06-30T19:44:15.753Z,59.10
2018-06-30T19:47:26.799Z,59.50
2018-06-30T19:50:37.901Z,60.30
2018-06-30T19:53:48.300Z,61.50
2018-06-30T19:56:58.993Z,61.70
2018-06-30T20:00:09.688Z,61.80
2018-06-30T20:03:20.594Z,61.60
2018-06-30T20:06:31.215Z,61.90
2018-06-30T20:09:42.373Z,62.00
2018-06-30T20:13:55.571Z,62.70
2018-06-30T20:17:06.509Z,63.70
2018-06-30T20:20:16.976Z,64.90
2018-06-30T20:23:27.770Z,65.90
2018-06-30T20:26:38.301Z,66.10
2018-06-30T20:29:48.868Z,66.70
2018-06-30T20:32:59.301Z,67.30
2018-06-30T20:36:11.210Z,67.90
2018-06-30T20:39:22.625Z,68.80
2018-06-30T20:42:32.788Z,69.00
2018-06-30T20:45:45.007Z,70.00
2018-06-30T20:52:07.546Z,71.70
2018-06-30T20:55:18.507Z,72.00
2018-06-30T20:58:28.696Z,71.80
2018-06-30T21:01:40.592Z,72.50
2018-06-30T21:04:51.179Z,73.20
2018-06-30T21:08:02.269Z,73.80
2018-06-30T21:11:12.883Z,72.90
2018-06-30T21:14:23.801Z,74.70
2018-06-30T21:17:34.413Z,76.00
2018-06-30T21:20:45.787Z,76.60
2018-06-30T21:23:56.167Z,77.60
2018-06-30T21:27:07.565Z,78.50
2018-06-30T21:30:17.805Z,79.50
2018-06-30T21:33:28.149Z,80.70
2018-06-30T21:36:39.500Z,80.80
2018-06-30T21:39:50.775Z,82.20
2018-06-30T21:43:01.844Z,83.50
2018-06-30T21:46:12.585Z,83.60
2018-06-30T21:49:23.773Z,84.50
2018-06-30T21:52:34.789Z,85.90
2018-06-30T21:55:46.201Z,88.00
2018-06-30T21:58:56.327Z,89.50
2018-06-30T22:02:08.791Z,90.60
2018-06-30T22:05:18.958Z,90.70
2018-06-30T22:08:29.568Z,91.80
2018-06-30T22:11:41.829Z,93.00
2018-06-30T22:14:51.906Z,94.70
2018-06-30T22:18:01.827Z,96.30
2018-06-30T22:21:12.567Z,96.90
2018-06-30T22:24:23.452Z,98.30
2018-06-30T22:27:33.974Z,99.50
2018-06-30T22:30:44.825Z,99.60
2018-06-30T22:33:55.492Z,99.90
2018-06-30T22:37:05.605Z,99.90
2018-06-30T22:40:18.065Z,99.90
2018-06-30T22:46:39.615Z,99.90
2018-06-30T22:49:49.912Z,99.90
2018-06-30T22:53:00.565Z,99.90
2018-06-30T22:56:11.657Z,99.90
2018-06-30T22:59:22.237Z,99.90
2018-06-30T23:02:33.148Z,99.90
2018-06-30T23:05:43.600Z,99.90
2018-06-30T23:08:54.882Z,99.90
2018-06-30T23:12:05.983Z,99.90
2018-06-30T23:15:17.125Z,99.90
2018-06-30T23:18:27.696Z,99.90
2018-06-30T23:21:38.486Z,99.90
2018-06-30T23:24:49.635Z,99.90
2018-06-30T23:28:00.678Z,99.90
2018-06-30T23:31:11.259Z,99.90
2018-06-30T23:34:22.283Z,99.90
2018-06-30T23:37:32.735Z,99.90
2018-06-30T23:40:43.424Z,99.90
2018-06-30T23:43:54.522Z,99.90
2018-06-30T23:47:05.512Z,99.90
2018-06-30T23:50:16.002Z,99.90
2018-06-30T23:53:26.201Z,99.90
2018-06-30T23:56:37.116Z,99.90
2018-06-30T23:59:48.196Z,99.90
